sensor_id;sensor_type;location;lat;lon;timestamp;P1;durP1;ratioP1;P2;durP2;ratioP2
42666;SDS011;28280;49.646;14.130;2023-10-09T00:08:20;3.50;;;2.30;;
42666;SDS011;28280;49.646;14.130;2023-10-09T00:18:53;3.28;;;1.98;;
42666;SDS011;28280;49.646;14.130;2023-10-09T00:29:15;2.97;;;2.00;;
42666;SDS011;28280;49.646;14.130;2023-10-09T00:39:49;3.40;;;1.95;;
42666;SDS011;28280;49.646;14.130;2023-10-09T00:50:16;2.97;;;2.08;;
42666;SDS011;28280;49.646;14.130;2023-10-09T01:00:38;3.55;;;1.90;;
42666;SDS011;28280;49.646;14.130;2023-10-09T01:11:07;3.45;;;2.30;;
42666;SDS011;28280;49.646;14.130;2023-10-09T01:21:39;3.35;;;2.03;;
42666;SDS011;28280;49.646;14.130;2023-10-09T01:32:00;3.25;;;2.13;;
42666;SDS011;28280;49.646;14.130;2023-10-09T01:42:23;2.97;;;1.85;;
42666;SDS011;28280;49.646;14.130;2023-10-09T01:52:50;2.88;;;1.60;;
42666;SDS011;28280;49.646;14.130;2023-10-09T02:03:12;2.55;;;2.10;;
42666;SDS011;28280;49.646;14.130;2023-10-09T02:13:44;2.80;;;1.73;;
42666;SDS011;28280;49.646;14.130;2023-10-09T02:24:08;2.67;;;1.80;;
42666;SDS011;28280;49.646;14.130;2023-10-09T02:34:34;2.20;;;1.45;;
42666;SDS011;28280;49.646;14.130;2023-10-09T02:44:59;2.38;;;1.83;;
42666;SDS011;28280;49.646;14.130;2023-10-09T02:55:21;2.47;;;1.80;;
42666;SDS011;28280;49.646;14.130;2023-10-09T03:05:46;3.97;;;1.73;;
42666;SDS011;28280;49.646;14.130;2023-10-09T03:16:11;2.55;;;1.80;;
42666;SDS011;28280;49.646;14.130;2023-10-09T03:26:42;1.85;;;1.48;;
42666;SDS011;28280;49.646;14.130;2023-10-09T03:37:06;2.33;;;1.58;;
42666;SDS011;28280;49.646;14.130;2023-10-09T03:47:42;2.50;;;2.00;;
42666;SDS011;28280;49.646;14.130;2023-10-09T03:58:09;2.72;;;1.67;;
42666;SDS011;28280;49.646;14.130;2023-10-09T04:08:35;2.58;;;1.70;;
42666;SDS011;28280;49.646;14.130;2023-10-09T04:19:00;2.42;;;1.60;;
42666;SDS011;28280;49.646;14.130;2023-10-09T04:29:34;3.67;;;1.50;;
42666;SDS011;28280;49.646;14.130;2023-10-09T04:40:00;2.57;;;1.80;;
42666;SDS011;28280;49.646;14.130;2023-10-09T04:50:35;2.60;;;1.67;;
42666;SDS011;28280;49.646;14.130;2023-10-09T05:00:56;3.05;;;1.92;;
42666;SDS011;28280;49.646;14.130;2023-10-09T05:11:18;3.05;;;1.95;;
42666;SDS011;28280;49.646;14.130;2023-10-09T05:21:58;3.20;;;2.22;;
42666;SDS011;28280;49.646;14.130;2023-10-09T05:32:19;3.58;;;2.22;;
42666;SDS011;28280;49.646;14.130;2023-10-09T05:42:50;3.80;;;2.40;;
42666;SDS011;28280;49.646;14.130;2023-10-09T05:53:23;3.17;;;2.15;;
42666;SDS011;28280;49.646;14.130;2023-10-09T06:03:51;3.53;;;2.42;;
42666;SDS011;28280;49.646;14.130;2023-10-09T06:14:16;3.13;;;2.43;;
42666;SDS011;28280;49.646;14.130;2023-10-09T06:24:50;4.00;;;2.30;;
42666;SDS011;28280;49.646;14.130;2023-10-09T06:35:15;2.90;;;2.08;;
42666;SDS011;28280;49.646;14.130;2023-10-09T06:56:22;3.80;;;2.13;;
42666;SDS011;28280;49.646;14.130;2023-10-09T07:07:07;4.32;;;2.28;;
42666;SDS011;28280;49.646;14.130;2023-10-09T07:17:31;6.72;;;2.65;;
42666;SDS011;28280;49.646;14.130;2023-10-09T07:27:55;6.15;;;2.72;;
42666;SDS011;28280;49.646;14.130;2023-10-09T07:38:17;4.90;;;2.60;;
42666;SDS011;28280;49.646;14.130;2023-10-09T07:48:40;6.13;;;3.03;;
42666;SDS011;28280;49.646;14.130;2023-10-09T07:59:13;6.45;;;3.05;;
42666;SDS011;28280;49.646;14.130;2023-10-09T08:09:39;6.18;;;3.05;;
42666;SDS011;28280;49.646;14.130;2023-10-09T08:20:33;6.25;;;2.83;;
42666;SDS011;28280;49.646;14.130;2023-10-09T08:31:16;5.50;;;3.03;;
42666;SDS011;28280;49.646;14.130;2023-10-09T08:42:06;4.97;;;3.10;;
42666;SDS011;28280;49.646;14.130;2023-10-09T08:52:29;7.32;;;3.67;;
42666;SDS011;28280;49.646;14.130;2023-10-09T09:02:50;7.13;;;3.33;;
42666;SDS011;28280;49.646;14.130;2023-10-09T09:13:16;5.85;;;3.05;;
42666;SDS011;28280;49.646;14.130;2023-10-09T09:23:40;7.10;;;3.63;;
42666;SDS011;28280;49.646;14.130;2023-10-09T09:34:15;7.82;;;4.05;;
42666;SDS011;28280;49.646;14.130;2023-10-09T09:44:45;8.25;;;3.38;;
42666;SDS011;28280;49.646;14.130;2023-10-09T09:55:08;6.43;;;3.72;;
42666;SDS011;28280;49.646;14.130;2023-10-09T10:05:44;7.35;;;3.75;;
42666;SDS011;28280;49.646;14.130;2023-10-09T10:16:13;5.70;;;3.50;;
42666;SDS011;28280;49.646;14.130;2023-10-09T10:26:40;7.53;;;4.03;;
42666;SDS011;28280;49.646;14.130;2023-10-09T10:37:02;7.50;;;3.65;;
42666;SDS011;28280;49.646;14.130;2023-10-09T10:47:27;6.13;;;3.30;;
42666;SDS011;28280;49.646;14.130;2023-10-09T10:57:55;6.72;;;3.65;;
42666;SDS011;28280;49.646;14.130;2023-10-09T11:08:31;8.87;;;3.67;;
42666;SDS011;28280;49.646;14.130;2023-10-09T11:18:53;7.05;;;3.83;;
42666;SDS011;28280;49.646;14.130;2023-10-09T11:29:17;7.22;;;3.40;;
42666;SDS011;28280;49.646;14.130;2023-10-09T11:40:27;6.28;;;3.42;;
42666;SDS011;28280;49.646;14.130;2023-10-09T11:50:54;5.63;;;3.63;;
42666;SDS011;28280;49.646;14.130;2023-10-09T12:01:25;5.57;;;3.30;;
42666;SDS011;28280;49.646;14.130;2023-10-09T12:11:47;8.45;;;4.05;;
42666;SDS011;28280;49.646;14.130;2023-10-09T12:22:23;9.05;;;4.30;;
42666;SDS011;28280;49.646;14.130;2023-10-09T12:32:48;7.13;;;4.03;;
42666;SDS011;28280;49.646;14.130;2023-10-09T12:43:09;7.20;;;3.88;;
42666;SDS011;28280;49.646;14.130;2023-10-09T12:53:37;9.68;;;4.30;;
42666;SDS011;28280;49.646;14.130;2023-10-09T13:04:02;7.13;;;3.83;;
42666;SDS011;28280;49.646;14.130;2023-10-09T13:14:32;6.35;;;3.47;;
42666;SDS011;28280;49.646;14.130;2023-10-09T13:24:55;8.20;;;4.05;;
42666;SDS011;28280;49.646;14.130;2023-10-09T13:35:24;6.85;;;3.60;;
42666;SDS011;28280;49.646;14.130;2023-10-09T13:45:58;8.73;;;4.25;;
42666;SDS011;28280;49.646;14.130;2023-10-09T13:56:20;7.40;;;3.67;;
42666;SDS011;28280;49.646;14.130;2023-10-09T14:06:42;8.10;;;4.00;;
42666;SDS011;28280;49.646;14.130;2023-10-09T14:17:08;10.15;;;4.32;;
42666;SDS011;28280;49.646;14.130;2023-10-09T14:27:33;9.23;;;4.70;;
42666;SDS011;28280;49.646;14.130;2023-10-09T14:37:56;7.35;;;4.03;;
42666;SDS011;28280;49.646;14.130;2023-10-09T14:48:21;6.57;;;3.65;;
42666;SDS011;28280;49.646;14.130;2023-10-09T14:58:50;8.57;;;3.75;;
42666;SDS011;28280;49.646;14.130;2023-10-09T15:09:12;7.95;;;4.25;;
42666;SDS011;28280;49.646;14.130;2023-10-09T15:19:43;8.93;;;4.07;;
42666;SDS011;28280;49.646;14.130;2023-10-09T15:30:06;8.23;;;4.30;;
42666;SDS011;28280;49.646;14.130;2023-10-09T15:40:35;7.85;;;3.85;;
42666;SDS011;28280;49.646;14.130;2023-10-09T15:50:57;5.88;;;3.33;;
42666;SDS011;28280;49.646;14.130;2023-10-09T16:01:18;6.20;;;3.05;;
42666;SDS011;28280;49.646;14.130;2023-10-09T16:11:39;7.00;;;4.40;;
42666;SDS011;28280;49.646;14.130;2023-10-09T16:22:01;5.60;;;3.22;;
42666;SDS011;28280;49.646;14.130;2023-10-09T16:32:24;7.55;;;4.15;;
42666;SDS011;28280;49.646;14.130;2023-10-09T16:42:46;7.40;;;3.67;;
42666;SDS011;28280;49.646;14.130;2023-10-09T16:53:10;6.97;;;3.60;;
42666;SDS011;28280;49.646;14.130;2023-10-09T17:03:32;7.70;;;4.10;;
42666;SDS011;28280;49.646;14.130;2023-10-09T17:13:55;8.93;;;3.97;;
42666;SDS011;28280;49.646;14.130;2023-10-09T17:24:19;6.68;;;3.70;;
42666;SDS011;28280;49.646;14.130;2023-10-09T17:34:42;7.53;;;3.85;;
42666;SDS011;28280;49.646;14.130;2023-10-09T17:45:05;8.13;;;3.78;;
42666;SDS011;28280;49.646;14.130;2023-10-09T17:55:27;7.55;;;4.25;;
42666;SDS011;28280;49.646;14.130;2023-10-09T18:05:51;8.38;;;3.75;;
42666;SDS011;28280;49.646;14.130;2023-10-09T18:16:14;8.45;;;3.28;;
42666;SDS011;28280;49.646;14.130;2023-10-09T18:26:40;8.93;;;3.67;;
42666;SDS011;28280;49.646;14.130;2023-10-09T18:37:03;8.50;;;3.97;;
42666;SDS011;28280;49.646;14.130;2023-10-09T18:47:28;7.15;;;3.88;;
42666;SDS011;28280;49.646;14.130;2023-10-09T18:57:51;8.93;;;3.78;;
42666;SDS011;28280;49.646;14.130;2023-10-09T19:08:14;8.55;;;3.60;;
42666;SDS011;28280;49.646;14.130;2023-10-09T19:18:39;7.53;;;3.73;;
42666;SDS011;28280;49.646;14.130;2023-10-09T19:29:01;7.07;;;3.63;;
42666;SDS011;28280;49.646;14.130;2023-10-09T19:39:24;6.78;;;3.70;;
42666;SDS011;28280;49.646;14.130;2023-10-09T19:49:52;6.97;;;3.80;;
42666;SDS011;28280;49.646;14.130;2023-10-09T20:00:14;8.35;;;3.38;;
42666;SDS011;28280;49.646;14.130;2023-10-09T20:10:44;8.30;;;3.67;;
42666;SDS011;28280;49.646;14.130;2023-10-09T20:21:05;8.82;;;4.07;;
42666;SDS011;28280;49.646;14.130;2023-10-09T20:31:30;7.47;;;3.53;;
42666;SDS011;28280;49.646;14.130;2023-10-09T20:41:52;7.13;;;3.78;;
42666;SDS011;28280;49.646;14.130;2023-10-09T20:52:13;9.65;;;3.83;;
42666;SDS011;28280;49.646;14.130;2023-10-09T21:02:35;6.97;;;3.53;;
42666;SDS011;28280;49.646;14.130;2023-10-09T21:12:57;8.65;;;3.75;;
42666;SDS011;28280;49.646;14.130;2023-10-09T21:23:19;8.50;;;3.53;;
42666;SDS011;28280;49.646;14.130;2023-10-09T21:33:44;7.53;;;3.65;;
42666;SDS011;28280;49.646;14.130;2023-10-09T21:44:07;6.10;;;3.25;;
42666;SDS011;28280;49.646;14.130;2023-10-09T21:54:34;5.55;;;3.38;;
42666;SDS011;28280;49.646;14.130;2023-10-09T22:04:55;8.00;;;3.67;;
42666;SDS011;28280;49.646;14.130;2023-10-09T22:15:17;8.75;;;3.58;;
42666;SDS011;28280;49.646;14.130;2023-10-09T22:25:39;9.32;;;4.15;;
42666;SDS011;28280;49.646;14.130;2023-10-09T22:36:00;9.52;;;3.70;;
42666;SDS011;28280;49.646;14.130;2023-10-09T22:46:22;5.97;;;3.40;;
42666;SDS011;28280;49.646;14.130;2023-10-09T22:56:44;6.55;;;3.40;;
42666;SDS011;28280;49.646;14.130;2023-10-09T23:07:07;6.97;;;3.17;;
42666;SDS011;28280;49.646;14.130;2023-10-09T23:17:36;5.88;;;3.03;;
42666;SDS011;28280;49.646;14.130;2023-10-09T23:28:09;6.65;;;3.30;;
42666;SDS011;28280;49.646;14.130;2023-10-09T23:38:56;7.47;;;3.35;;
42666;SDS011;28280;49.646;14.130;2023-10-09T23:49:31;6.47;;;3.70;;
42666;SDS011;28280;49.646;14.130;2023-10-09T23:59:54;6.95;;;3.80;;
